PWSweather.com
Personal Weather Stations
Station Observations
IMAZOWIE6
WarszawaPL

WarszawaPL

Lat: 52.27957, Lon: 21.05489

Elevation: 100

Station Type: WS1080

http://stacjapogody.waw.pl/

High Low Average
Temperature 63.5°F17.5°C 41.4°F5.2°C 52.4°F11.3°C
Dew Point -166.5°F-110.3°C -168.7°F-111.5°C -167.6°F-110.9°C
Winds Calm Calm Calm Calm Calm NCalm N
Wind Gusts 0.6 mph1.0 kmh -- --
Humidity - - -
Pressure 29.30 in992.2 mb 29.14 in986.8 mb -
Precipitation 0.00 in0.0 mm - -
Hour Temp Dew Point Humidity Winds Wind Gusts Pressure Precip Precip Rate Daily Precip Total
12:01 AM 41.5°F5.3°C -168.6°F-111.4°C - Calm Calm -- 29.30 in992.2 mb 0.00 in0.0 mm 0.00 in0.0 mm 0.00 in0.0 mm
12:16 AM 42.1°F5.6°C -168.6°F-111.4°C - Calm Calm -- 29.30 in992.2 mb 0.00 in0.0 mm 0.00 in0.0 mm 0.00 in0.0 mm
12:31 AM 42.3°F5.7°C -168.6°F-111.4°C - Calm Calm -- 29.30 in992.2 mb 0.00 in0.0 mm 0.00 in0.0 mm 0.00 in0.0 mm
12:46 AM 42.4°F5.8°C -168.6°F-111.4°C - Calm Calm -- 29.30 in992.2 mb 0.00 in0.0 mm 0.00 in0.0 mm 0.00 in0.0 mm
01:01 AM 42.4°F5.8°C -168.6°F-111.4°C - Calm Calm -- 29.29 in991.9 mb 0.00 in0.0 mm 0.00 in0.0 mm 0.00 in0.0 mm
01:16 AM 42.4°F5.8°C -168.6°F-111.4°C - Calm Calm -- 29.29 in991.9 mb 0.00 in0.0 mm 0.00 in0.0 mm 0.00 in0.0 mm
01:31 AM 42.6°F5.9°C -168.5°F-111.4°C - Calm Calm -- 29.29 in991.9 mb 0.00 in0.0 mm 0.00 in0.0 mm 0.00 in0.0 mm
01:46 AM 42.8°F6.0°C -168.5°F-111.4°C - Calm Calm -- 29.28 in991.5 mb 0.00 in0.0 mm 0.00 in0.0 mm 0.00 in0.0 mm
02:01 AM 42.8°F6.0°C -168.5°F-111.4°C - Calm Calm -- 29.28 in991.5 mb 0.00 in0.0 mm 0.00 in0.0 mm 0.00 in0.0 mm
02:16 AM 42.1°F5.6°C -168.6°F-111.4°C - Calm Calm -- 29.28 in991.5 mb 0.00 in0.0 mm 0.00 in0.0 mm 0.00 in0.0 mm
02:31 AM 41.9°F5.5°C -168.6°F-111.4°C - Calm Calm -- 29.27 in991.2 mb 0.00 in0.0 mm 0.00 in0.0 mm 0.00 in0.0 mm
02:46 AM 41.9°F5.5°C -168.6°F-111.4°C - Calm Calm -- 29.27 in991.2 mb 0.00 in0.0 mm 0.00 in0.0 mm 0.00 in0.0 mm
03:01 AM 41.9°F5.5°C -168.6°F-111.4°C - Calm Calm -- 29.26 in990.9 mb 0.00 in0.0 mm 0.00 in0.0 mm 0.00 in0.0 mm
03:16 AM 41.4°F5.2°C -168.7°F-111.5°C - Calm Calm -- 29.26 in990.9 mb 0.01 in0.3 mm 0.05 in1.3 mm 0.01 in0.3 mm
03:31 AM 41.4°F5.2°C -168.7°F-111.5°C - Calm Calm -- 29.26 in990.9 mb 0.01 in0.3 mm 0.00 in0.0 mm 0.01 in0.3 mm
03:46 AM 41.4°F5.2°C -168.7°F-111.5°C - Calm Calm -- 29.25 in990.5 mb 0.01 in0.3 mm 0.00 in0.0 mm 0.01 in0.3 mm
04:01 AM 41.5°F5.3°C -168.6°F-111.4°C - Calm Calm -- 29.25 in990.5 mb 0.01 in0.3 mm 0.00 in0.0 mm 0.01 in0.3 mm
04:16 AM 41.5°F5.3°C -168.6°F-111.4°C - Calm Calm -- 29.25 in990.5 mb 0.00 in0.0 mm 0.00 in0.0 mm 0.01 in0.3 mm
04:31 AM 41.5°F5.3°C -168.6°F-111.4°C - Calm Calm -- 29.25 in990.5 mb 0.00 in0.0 mm 0.00 in0.0 mm 0.01 in0.3 mm
04:46 AM 41.9°F5.5°C -168.6°F-111.4°C - Calm Calm -- 29.25 in990.5 mb 0.00 in0.0 mm 0.00 in0.0 mm 0.01 in0.3 mm
05:01 AM 41.5°F5.3°C -168.6°F-111.4°C - Calm Calm -- 29.24 in990.2 mb 0.00 in0.0 mm 0.00 in0.0 mm 0.01 in0.3 mm
05:16 AM 41.7°F5.4°C -168.6°F-111.4°C - Calm Calm -- 29.24 in990.2 mb 0.00 in0.0 mm 0.00 in0.0 mm 0.01 in0.3 mm
05:31 AM 42.1°F5.6°C -168.6°F-111.4°C - Calm Calm -- 29.24 in990.2 mb 0.00 in0.0 mm 0.00 in0.0 mm 0.01 in0.3 mm
05:46 AM 42.3°F5.7°C -168.6°F-111.4°C - Calm Calm -- 29.24 in990.2 mb 0.00 in0.0 mm 0.00 in0.0 mm 0.01 in0.3 mm
06:01 AM 43.0°F6.1°C -168.5°F-111.4°C - Calm Calm -- 29.24 in990.2 mb 0.00 in0.0 mm 0.00 in0.0 mm 0.01 in0.3 mm
06:16 AM 43.2°F6.2°C -168.5°F-111.4°C - Calm Calm -- 29.24 in990.2 mb 0.00 in0.0 mm 0.00 in0.0 mm 0.01 in0.3 mm
06:31 AM 43.7°F6.5°C -168.4°F-111.3°C - Calm Calm -- 29.24 in990.2 mb 0.00 in0.0 mm 0.00 in0.0 mm 0.01 in0.3 mm
06:46 AM 44.2°F6.8°C -168.4°F-111.3°C - Calm Calm -- 29.24 in990.2 mb 0.00 in0.0 mm 0.00 in0.0 mm 0.01 in0.3 mm
07:01 AM 45.0°F7.2°C -168.3°F-111.3°C - Calm Calm -- 29.24 in990.2 mb 0.00 in0.0 mm 0.00 in0.0 mm 0.01 in0.3 mm
07:16 AM 45.5°F7.5°C -168.3°F-111.3°C - Calm Calm -- 29.25 in990.5 mb 0.00 in0.0 mm 0.00 in0.0 mm 0.01 in0.3 mm
07:31 AM 45.9°F7.7°C -168.2°F-111.2°C - Calm Calm -- 29.25 in990.5 mb 0.00 in0.0 mm 0.00 in0.0 mm 0.01 in0.3 mm
07:46 AM 46.4°F8.0°C -168.2°F-111.2°C - Calm Calm -- 29.25 in990.5 mb 0.00 in0.0 mm 0.00 in0.0 mm 0.01 in0.3 mm
08:01 AM 46.9°F8.3°C -168.1°F-111.2°C - Calm Calm 0.6 mph1.0 kmh 29.24 in990.2 mb 0.00 in0.0 mm 0.00 in0.0 mm 0.01 in0.3 mm
08:16 AM 48.0°F8.9°C -168.0°F-111.1°C - Calm Calm -- 29.24 in990.2 mb 0.00 in0.0 mm 0.00 in0.0 mm 0.01 in0.3 mm
08:31 AM 48.9°F9.4°C -167.9°F-111.1°C - Calm Calm -- 29.24 in990.2 mb 0.00 in0.0 mm 0.00 in0.0 mm 0.01 in0.3 mm
08:46 AM 50.4°F10.2°C -167.8°F-111.0°C - Calm Calm 0.6 mph1.0 kmh 29.24 in990.2 mb 0.00 in0.0 mm 0.00 in0.0 mm 0.01 in0.3 mm
09:01 AM 50.5°F10.3°C -167.7°F-110.9°C - Calm Calm -- 29.24 in990.2 mb 0.00 in0.0 mm 0.00 in0.0 mm 0.01 in0.3 mm
09:16 AM 51.6°F10.9°C -167.6°F-110.9°C - Calm Calm -- 29.24 in990.2 mb 0.00 in0.0 mm 0.00 in0.0 mm 0.01 in0.3 mm
09:31 AM 52.9°F11.6°C -167.5°F-110.8°C - Calm Calm -- 29.24 in990.2 mb 0.00 in0.0 mm 0.00 in0.0 mm 0.01 in0.3 mm
09:46 AM 54.1°F12.3°C -167.4°F-110.8°C - Calm Calm -- 29.23 in989.8 mb 0.00 in0.0 mm 0.00 in0.0 mm 0.01 in0.3 mm
10:01 AM 55.9°F13.3°C -167.2°F-110.7°C - Calm Calm 0.6 mph1.0 kmh 29.23 in989.8 mb 0.00 in0.0 mm 0.00 in0.0 mm 0.01 in0.3 mm
10:16 AM 55.9°F13.3°C -167.2°F-110.7°C - Calm Calm -- 29.22 in989.5 mb 0.00 in0.0 mm 0.00 in0.0 mm 0.01 in0.3 mm
10:31 AM 56.5°F13.6°C -167.2°F-110.7°C - Calm Calm -- 29.22 in989.5 mb 0.00 in0.0 mm 0.00 in0.0 mm 0.01 in0.3 mm
10:46 AM 57.9°F14.4°C -167.0°F-110.6°C - Calm Calm -- 29.22 in989.5 mb 0.00 in0.0 mm 0.00 in0.0 mm 0.01 in0.3 mm
11:01 AM 58.1°F14.5°C -167.0°F-110.6°C - Calm Calm -- 29.21 in989.2 mb 0.00 in0.0 mm 0.00 in0.0 mm 0.01 in0.3 mm
11:16 AM 58.5°F14.7°C -167.0°F-110.6°C - Calm Calm -- 29.21 in989.2 mb 0.00 in0.0 mm 0.00 in0.0 mm 0.01 in0.3 mm
11:31 AM 58.3°F14.6°C -167.0°F-110.6°C - Calm Calm 0.6 mph1.0 kmh 29.20 in988.8 mb 0.00 in0.0 mm 0.00 in0.0 mm 0.01 in0.3 mm
11:46 AM 58.8°F14.9°C -166.9°F-110.5°C - Calm Calm 0.6 mph1.0 kmh 29.20 in988.8 mb 0.00 in0.0 mm 0.00 in0.0 mm 0.01 in0.3 mm
12:01 PM 59.0°F15.0°C -166.9°F-110.5°C - Calm Calm -- 29.19 in988.5 mb 0.00 in0.0 mm 0.00 in0.0 mm 0.01 in0.3 mm
12:16 PM 59.4°F15.2°C -166.9°F-110.5°C - Calm Calm -- 29.19 in988.5 mb 0.00 in0.0 mm 0.00 in0.0 mm 0.01 in0.3 mm
12:31 PM 60.3°F15.7°C -166.8°F-110.4°C - Calm Calm -- 29.19 in988.5 mb 0.00 in0.0 mm 0.00 in0.0 mm 0.01 in0.3 mm
12:46 PM 60.4°F15.8°C -166.8°F-110.4°C - Calm Calm -- 29.19 in988.5 mb 0.00 in0.0 mm 0.00 in0.0 mm 0.01 in0.3 mm
01:01 PM 60.8°F16.0°C -166.7°F-110.4°C - Calm Calm -- 29.18 in988.1 mb 0.00 in0.0 mm 0.00 in0.0 mm 0.01 in0.3 mm
01:16 PM 61.0°F16.1°C -166.7°F-110.4°C - Calm Calm -- 29.18 in988.1 mb 0.00 in0.0 mm 0.00 in0.0 mm 0.01 in0.3 mm
01:31 PM 61.2°F16.2°C -166.7°F-110.4°C - Calm Calm -- 29.17 in987.8 mb 0.00 in0.0 mm 0.00 in0.0 mm 0.01 in0.3 mm
01:46 PM 61.5°F16.4°C -166.6°F-110.3°C - Calm Calm -- 29.16 in987.5 mb 0.00 in0.0 mm 0.00 in0.0 mm 0.01 in0.3 mm
02:01 PM 61.7°F16.5°C -166.6°F-110.3°C - Calm Calm -- 29.16 in987.5 mb 0.00 in0.0 mm 0.00 in0.0 mm 0.01 in0.3 mm
02:16 PM 61.9°F16.6°C -166.6°F-110.3°C - Calm Calm -- 29.16 in987.5 mb 0.01 in0.3 mm 0.05 in1.3 mm 0.02 in0.5 mm
02:31 PM 62.2°F16.8°C -166.6°F-110.3°C - Calm Calm -- 29.16 in987.5 mb 0.01 in0.3 mm 0.00 in0.0 mm 0.02 in0.5 mm
02:46 PM 62.2°F16.8°C -166.6°F-110.3°C - Calm Calm -- 29.16 in987.5 mb 0.01 in0.3 mm 0.00 in0.0 mm 0.02 in0.5 mm
03:01 PM 62.4°F16.9°C -166.6°F-110.3°C - Calm Calm -- 29.16 in987.5 mb 0.01 in0.3 mm 0.00 in0.0 mm 0.02 in0.5 mm
03:16 PM 62.8°F17.1°C -166.5°F-110.3°C - Calm Calm -- 29.16 in987.5 mb 0.00 in0.0 mm 0.00 in0.0 mm 0.02 in0.5 mm
03:31 PM 63.5°F17.5°C -166.5°F-110.3°C - Calm Calm 0.6 mph1.0 kmh 29.15 in987.1 mb 0.00 in0.0 mm 0.00 in0.0 mm 0.02 in0.5 mm
03:46 PM 63.1°F17.3°C -166.5°F-110.3°C - Calm Calm -- 29.15 in987.1 mb 0.00 in0.0 mm 0.00 in0.0 mm 0.02 in0.5 mm
04:01 PM 63.0°F17.2°C -166.5°F-110.3°C - Calm Calm -- 29.14 in986.8 mb 0.00 in0.0 mm 0.00 in0.0 mm 0.02 in0.5 mm
04:16 PM 63.0°F17.2°C -166.5°F-110.3°C - Calm Calm -- 29.14 in986.8 mb 0.00 in0.0 mm 0.00 in0.0 mm 0.02 in0.5 mm
04:31 PM 62.6°F17.0°C -166.5°F-110.3°C - Calm Calm -- 29.14 in986.8 mb 0.00 in0.0 mm 0.00 in0.0 mm 0.02 in0.5 mm
04:46 PM 62.2°F16.8°C -166.6°F-110.3°C - Calm Calm -- 29.14 in986.8 mb 0.00 in0.0 mm 0.00 in0.0 mm 0.02 in0.5 mm
05:01 PM 61.7°F16.5°C -166.6°F-110.3°C - Calm Calm -- 29.14 in986.8 mb 0.00 in0.0 mm 0.00 in0.0 mm 0.02 in0.5 mm
05:16 PM 61.2°F16.2°C -166.7°F-110.4°C - Calm Calm -- 29.14 in986.8 mb 0.00 in0.0 mm 0.00 in0.0 mm 0.02 in0.5 mm
05:31 PM 61.0°F16.1°C -166.7°F-110.4°C - Calm Calm -- 29.15 in987.1 mb 0.00 in0.0 mm 0.00 in0.0 mm 0.02 in0.5 mm
05:46 PM 59.9°F15.5°C -166.8°F-110.4°C - Calm Calm -- 29.14 in986.8 mb 0.00 in0.0 mm 0.00 in0.0 mm 0.02 in0.5 mm
06:01 PM 59.4°F15.2°C -166.9°F-110.5°C - Calm Calm -- 29.15 in987.1 mb 0.00 in0.0 mm 0.00 in0.0 mm 0.02 in0.5 mm
06:16 PM 58.8°F14.9°C -166.9°F-110.5°C - Calm Calm -- 29.15 in987.1 mb 0.00 in0.0 mm 0.00 in0.0 mm 0.02 in0.5 mm
06:31 PM 58.3°F14.6°C -167.0°F-110.6°C - Calm Calm -- 29.15 in987.1 mb 0.00 in0.0 mm 0.00 in0.0 mm 0.02 in0.5 mm
06:46 PM 57.6°F14.2°C -167.0°F-110.6°C - Calm Calm -- 29.16 in987.5 mb 0.00 in0.0 mm 0.00 in0.0 mm 0.02 in0.5 mm
07:01 PM 57.4°F14.1°C -167.1°F-110.6°C - Calm Calm -- 29.15 in987.1 mb 0.00 in0.0 mm 0.00 in0.0 mm 0.02 in0.5 mm
07:16 PM 57.9°F14.4°C -167.0°F-110.6°C - Calm Calm -- 29.15 in987.1 mb 0.00 in0.0 mm 0.00 in0.0 mm 0.02 in0.5 mm
07:31 PM 57.7°F14.3°C -167.0°F-110.6°C - Calm Calm -- 29.15 in987.1 mb 0.00 in0.0 mm 0.00 in0.0 mm 0.02 in0.5 mm
07:46 PM 57.0°F13.9°C -167.1°F-110.6°C - Calm Calm -- 29.15 in987.1 mb 0.00 in0.0 mm 0.00 in0.0 mm 0.02 in0.5 mm
08:01 PM 56.3°F13.5°C -167.2°F-110.7°C - Calm Calm -- 29.16 in987.5 mb 0.00 in0.0 mm 0.00 in0.0 mm 0.02 in0.5 mm
08:16 PM 56.3°F13.5°C -167.2°F-110.7°C - Calm Calm -- 29.16 in987.5 mb 0.00 in0.0 mm 0.00 in0.0 mm 0.02 in0.5 mm
08:31 PM 55.6°F13.1°C -167.2°F-110.7°C - Calm Calm -- 29.16 in987.5 mb 0.00 in0.0 mm 0.00 in0.0 mm 0.02 in0.5 mm
08:46 PM 55.0°F12.8°C -167.3°F-110.7°C - Calm Calm -- 29.16 in987.5 mb 0.00 in0.0 mm 0.00 in0.0 mm 0.02 in0.5 mm
09:01 PM 55.0°F12.8°C -167.3°F-110.7°C - Calm Calm -- 29.16 in987.5 mb 0.00 in0.0 mm 0.00 in0.0 mm 0.02 in0.5 mm
09:16 PM 54.3°F12.4°C -167.4°F-110.8°C - Calm Calm -- 29.16 in987.5 mb 0.00 in0.0 mm 0.00 in0.0 mm 0.02 in0.5 mm
09:31 PM 53.1°F11.7°C -167.5°F-110.8°C - Calm Calm -- 29.16 in987.5 mb 0.00 in0.0 mm 0.00 in0.0 mm 0.02 in0.5 mm
09:46 PM 52.5°F11.4°C -167.5°F-110.8°C - Calm Calm -- 29.15 in987.1 mb 0.00 in0.0 mm 0.00 in0.0 mm 0.02 in0.5 mm
10:01 PM 53.1°F11.7°C -167.5°F-110.8°C - Calm Calm -- 29.16 in987.5 mb 0.00 in0.0 mm 0.00 in0.0 mm 0.02 in0.5 mm
10:16 PM 53.2°F11.8°C -167.5°F-110.8°C - Calm Calm -- 29.16 in987.5 mb 0.00 in0.0 mm 0.00 in0.0 mm 0.02 in0.5 mm
10:31 PM 53.1°F11.7°C -167.5°F-110.8°C - Calm Calm -- 29.16 in987.5 mb 0.00 in0.0 mm 0.00 in0.0 mm 0.02 in0.5 mm
10:46 PM 52.2°F11.2°C -167.6°F-110.9°C - Calm Calm -- 29.16 in987.5 mb 0.00 in0.0 mm 0.00 in0.0 mm 0.02 in0.5 mm
11:01 PM 51.6°F10.9°C -167.6°F-110.9°C - Calm Calm -- 29.16 in987.5 mb 0.00 in0.0 mm 0.00 in0.0 mm 0.02 in0.5 mm
11:16 PM 52.2°F11.2°C -167.6°F-110.9°C - Calm Calm -- 29.18 in988.1 mb 0.00 in0.0 mm 0.00 in0.0 mm 0.02 in0.5 mm
11:31 PM 53.4°F11.9°C -167.5°F-110.8°C - Calm Calm -- 29.21 in989.2 mb 0.00 in0.0 mm 0.00 in0.0 mm 0.02 in0.5 mm
11:46 PM 51.6°F10.9°C -167.6°F-110.9°C - Calm Calm -- 29.22 in989.5 mb 0.00 in0.0 mm 0.00 in0.0 mm 0.02 in0.5 mm